Time;durP1;ratioP1;P1;durP2;ratioP2;P2;SDS_P1;SDS_P2;PMS_P1;PMS_P2;Temp;Humidity;BMP_temperature;BMP_pressure;BME280_temperature;BME280_humidity;BME280_pressure;Samples;Min_cycle;Max_cycle;Signal;HPM_P1;HPM_P2
2024/01/12 00:00:19;;;;;;;28.50;11.90;;;;;;;-5.31;70.43;93912.38;5082550;28;20099;-70
2024/01/12 00:02:45;;;;;;;26.60;12.80;;;;;;;-5.26;70.34;93894.34;5082600;28;20035;-70
2024/01/12 00:05:11;;;;;;;26.92;11.50;;;;;;;-5.29;70.39;93897.38;5082642;28;20032;-71
2024/01/12 00:07:36;;;;;;;24.60;12.18;;;;;;;-5.25;70.27;93899.34;5082869;28;20052;-71
2024/01/12 00:10:05;;;;;;;27.63;11.68;;;;;;;-5.30;69.42;93888.00;5082605;28;20032;-71
2024/01/12 00:12:30;;;;;;;24.40;10.18;;;;;;;-5.33;69.27;93896.22;5082454;28;20056;-71
2024/01/12 00:14:56;;;;;;;29.67;12.70;;;;;;;-5.44;69.39;93898.50;5082584;28;20060;-71
2024/01/12 00:17:22;;;;;;;25.83;11.05;;;;;;;-5.53;69.37;93901.59;5082625;28;20099;-71
2024/01/12 00:19:47;;;;;;;23.50;11.98;;;;;;;-5.74;69.59;93900.94;5082375;28;20040;-71
2024/01/12 00:22:13;;;;;;;25.15;10.60;;;;;;;-5.96;70.78;93905.72;5081543;28;20047;-70
2024/01/12 00:24:38;;;;;;;21.65;9.27;;;;;;;-5.98;71.01;93897.34;5081390;28;20016;-70
2024/01/12 00:27:04;;;;;;;19.95;8.23;;;;;;;-5.94;69.45;93889.88;5082331;28;20033;-70
2024/01/12 00:29:29;;;;;;;20.73;9.15;;;;;;;-5.87;69.24;93882.88;5082520;28;20052;-71
2024/01/12 00:31:55;;;;;;;17.40;8.43;;;;;;;-5.86;69.17;93893.03;5082440;28;20032;-71
2024/01/12 00:34:20;;;;;;;22.85;9.20;;;;;;;-5.88;69.27;93896.88;5082233;28;20055;-71
2024/01/12 00:36:48;;;;;;;16.35;8.38;;;;;;;-5.88;69.05;93905.44;5082265;28;20033;-71
2024/01/12 00:39:13;;;;;;;16.98;7.55;;;;;;;-6.04;68.03;93895.59;5082352;28;20310;-71
2024/01/12 00:41:39;;;;;;;13.52;6.35;;;;;;;-5.99;65.12;93900.94;5082197;28;20032;-72
2024/01/12 00:44:05;;;;;;;17.00;6.10;;;;;;;-5.82;61.19;93897.78;5083020;28;20043;-71
2024/01/12 00:46:31;;;;;;;10.65;4.72;;;;;;;-5.60;58.04;93899.03;5085716;28;20103;-71
2024/01/12 00:48:57;;;;;;;10.35;3.83;;;;;;;-5.37;57.29;93871.66;5084414;28;20032;-71
2024/01/12 00:51:22;;;;;;;7.35;3.78;;;;;;;-5.16;56.25;93880.88;5085684;28;20067;-71
2024/01/12 00:53:48;;;;;;;7.60;4.13;;;;;;;-4.98;54.21;93873.09;5085481;28;20044;-71
2024/01/12 00:56:13;;;;;;;15.75;4.20;;;;;;;-4.83;54.10;93867.53;5085705;28;20024;-71
2024/01/12 00:58:38;;;;;;;11.05;4.85;;;;;;;-4.75;53.94;93877.63;5085637;28;20334;-71
2024/01/12 01:01:04;;;;;;;10.32;4.00;;;;;;;-4.69;53.66;93871.56;5084337;28;20024;-71
2024/01/12 01:03:29;;;;;;;8.73;3.95;;;;;;;-4.57;52.07;93896.84;5085413;28;20223;-71
2024/01/12 01:05:55;;;;;;;10.55;4.35;;;;;;;-4.54;51.13;93886.81;5085346;28;20325;-71
2024/01/12 01:08:20;;;;;;;14.05;3.90;;;;;;;-4.51;49.30;93885.56;5085247;28;20034;-71
2024/01/12 01:10:46;;;;;;;8.40;3.33;;;;;;;-4.42;49.40;93876.44;5085105;28;20048;-71
2024/01/12 01:13:13;;;;;;;6.60;3.55;;;;;;;-4.37;49.23;93887.00;5085766;28;20036;-70
2024/01/12 01:15:39;;;;;;;7.40;3.58;;;;;;;-4.32;49.49;93879.31;5085136;28;20029;-71
2024/01/12 01:18:04;;;;;;;8.05;3.35;;;;;;;-4.31;49.11;93877.53;5085366;28;20020;-71
2024/01/12 01:20:31;;;;;;;10.68;4.07;;;;;;;-4.38;48.15;93866.38;5085660;28;20024;-71
2024/01/12 01:22:56;;;;;;;11.10;4.35;;;;;;;-4.39;47.40;93860.41;5085971;28;20123;-70
2024/01/12 01:25:22;;;;;;;5.95;2.97;;;;;;;-4.33;47.80;93863.94;5085341;28;20021;-70
2024/01/12 01:27:47;;;;;;;6.15;3.15;;;;;;;-4.36;47.42;93867.75;5085622;28;20081;-71
2024/01/12 01:30:14;;;;;;;6.10;2.85;;;;;;;-4.49;47.23;93847.91;5085421;28;20371;-71
2024/01/12 01:32:39;;;;;;;9.52;3.10;;;;;;;-4.52;47.46;93843.16;5085036;28;20024;-71
2024/01/12 01:35:05;;;;;;;7.88;3.20;;;;;;;-4.50;46.63;93842.91;5084937;28;20244;-70
2024/01/12 01:37:30;;;;;;;9.70;4.32;;;;;;;-4.48;46.51;93833.09;5084958;28;20087;-71
2024/01/12 01:39:55;;;;;;;9.68;3.75;;;;;;;-4.46;46.86;93831.06;5084944;28;20021;-71
2024/01/12 01:42:21;;;;;;;11.75;4.63;;;;;;;-4.42;46.83;93821.78;5084833;28;20412;-70
2024/01/12 01:44:46;;;;;;;6.78;3.33;;;;;;;-4.49;46.00;93818.50;5084745;28;20028;-71
2024/01/12 01:47:14;;;;;;;12.70;3.85;;;;;;;-4.39;45.81;93810.97;5084867;28;20028;-71
2024/01/12 01:49:39;;;;;;;7.90;3.00;;;;;;;-4.39;44.80;93816.16;5084670;28;20047;-71
2024/01/12 01:52:05;;;;;;;5.85;2.80;;;;;;;-4.33;44.93;93809.28;5084572;28;20028;-70
2024/01/12 01:54:33;;;;;;;9.73;2.67;;;;;;;-4.35;44.12;93817.31;5084475;28;20032;-70
2024/01/12 01:56:58;;;;;;;8.05;3.92;;;;;;;-4.31;43.66;93823.66;5083777;28;20050;-71
2024/01/12 01:59:24;;;;;;;9.80;3.40;;;;;;;-4.22;44.92;93810.31;5084623;28;20078;-71
2024/01/12 02:01:50;;;;;;;7.80;3.45;;;;;;;-4.33;45.06;93809.28;5084700;28;20040;-70
2024/01/12 02:04:16;;;;;;;8.95;3.10;;;;;;;-4.37;44.47;93814.13;5084659;28;20044;-71
2024/01/12 02:06:42;;;;;;;5.30;2.35;;;;;;;-4.31;44.05;93815.84;5084979;28;20230;-71
2024/01/12 02:09:09;;;;;;;11.23;3.63;;;;;;;-4.27;44.58;93824.00;5084562;28;20055;-72
2024/01/12 02:11:34;;;;;;;8.57;4.30;;;;;;;-4.27;45.08;93819.59;5084650;28;20264;-71
2024/01/12 02:14:06;;;;;;;8.77;4.18;;;;;;;-4.28;45.14;93818.00;5083993;28;20027;-72
2024/01/12 02:16:32;;;;;;;6.38;2.25;;;;;;;-4.29;44.59;93803.41;5083687;28;20396;-73
2024/01/12 02:18:58;;;;;;;7.65;3.28;;;;;;;-4.28;44.89;93819.81;5084517;28;20099;-72
2024/01/12 02:21:23;;;;;;;8.25;3.53;;;;;;;-4.29;45.74;93826.03;5084058;28;20024;-72
2024/01/12 02:23:48;;;;;;;11.50;3.70;;;;;;;-4.34;46.76;93811.06;5084097;28;20021;-72
2024/01/12 02:26:14;;;;;;;9.02;2.92;;;;;;;-4.37;46.56;93808.94;5083719;28;20020;-72
2024/01/12 02:28:40;;;;;;;6.03;3.17;;;;;;;-4.37;46.98;93813.34;5083786;28;20033;-72
2024/01/12 02:31:05;;;;;;;11.48;3.50;;;;;;;-4.40;47.16;93818.97;5083702;28;20025;-72
2024/01/12 02:33:31;;;;;;;6.82;3.35;;;;;;;-4.47;47.78;93821.69;5083720;28;20016;-72
2024/01/12 02:35:56;;;;;;;9.35;4.60;;;;;;;-4.51;47.13;93807.53;5083480;28;20020;-72
2024/01/12 02:38:22;;;;;;;8.20;3.78;;;;;;;-4.49;48.00;93811.47;5083553;28;20017;-72
2024/01/12 02:40:47;;;;;;;11.38;4.30;;;;;;;-4.41;47.29;93817.41;5083437;28;20028;-72
2024/01/12 02:43:12;;;;;;;9.65;3.85;;;;;;;-4.44;48.12;93829.84;5083477;28;20311;-72
2024/01/12 02:45:38;;;;;;;9.50;4.13;;;;;;;-4.49;48.99;93828.91;5083550;28;20017;-72
2024/01/12 02:48:03;;;;;;;15.55;4.82;;;;;;;-4.54;48.81;93818.34;5083659;28;20222;-72
2024/01/12 02:50:29;;;;;;;11.77;4.95;;;;;;;-4.50;48.67;93817.72;5083522;28;20017;-71
2024/01/12 02:52:54;;;;;;;9.05;3.22;;;;;;;-4.54;49.78;93824.38;5083373;28;20214;-72
2024/01/12 02:55:20;;;;;;;7.72;3.47;;;;;;;-4.60;50.12;93825.22;5083411;28;20027;-72
2024/01/12 02:57:45;;;;;;;12.85;4.75;;;;;;;-4.62;50.78;93837.66;5083323;28;20025;-72
2024/01/12 03:00:11;;;;;;;11.30;5.32;;;;;;;-4.68;52.09;93839.34;5083279;28;20020;-72
2024/01/12 03:02:37;;;;;;;15.13;4.95;;;;;;;-4.67;53.14;93842.75;5083467;28;20054;-72
2024/01/12 03:05:02;;;;;;;18.10;6.32;;;;;;;-4.70;53.58;93843.97;5083358;28;20032;-72
2024/01/12 03:07:27;;;;;;;15.15;6.60;;;;;;;-4.69;54.55;93848.16;5083086;28;20315;-72
2024/01/12 03:09:53;;;;;;;17.50;7.45;;;;;;;-4.78;54.73;93848.66;5083476;28;20028;-72
2024/01/12 03:12:18;;;;;;;17.40;7.03;;;;;;;-4.81;55.14;93833.50;5082952;28;20239;-72
2024/01/12 03:14:44;;;;;;;13.27;6.63;;;;;;;-4.84;55.72;93826.94;5082884;28;20032;-72
2024/01/12 03:17:10;;;;;;;18.35;6.53;;;;;;;-4.93;56.75;93823.03;5083134;28;20047;-72
2024/01/12 03:19:35;;;;;;;18.17;5.95;;;;;;;-4.96;56.26;93824.28;5083114;28;20130;-73
2024/01/12 03:22:01;;;;;;;16.35;7.40;;;;;;;-5.05;56.54;93818.59;5082965;28;20096;-72
2024/01/12 03:24:27;;;;;;;12.43;7.60;;;;;;;-5.09;56.56;93817.44;5083008;28;20303;-72
2024/01/12 03:26:52;;;;;;;24.10;7.18;;;;;;;-5.08;56.88;93816.41;5083046;28;20210;-72
2024/01/12 03:29:18;;;;;;;23.50;7.35;;;;;;;-5.06;56.53;93821.38;5083001;28;20016;-72
2024/01/12 03:31:44;;;;;;;15.93;5.72;;;;;;;-5.05;55.15;93828.16;5082945;28;20012;-71
2024/01/12 03:34:09;;;;;;;10.65;5.10;;;;;;;-5.05;54.43;93828.97;5083069;28;20025;-72
2024/01/12 03:36:35;;;;;;;14.75;5.50;;;;;;;-4.88;53.55;93829.19;5082828;28;20048;-72
2024/01/12 03:39:00;;;;;;;11.52;4.88;;;;;;;-4.84;53.19;93834.75;5082809;28;20319;-71
2024/01/12 03:41:25;;;;;;;10.80;5.05;;;;;;;-4.76;53.21;93826.66;5082777;28;20016;-72
2024/01/12 03:43:51;;;;;;;9.40;3.90;;;;;;;-4.73;53.53;93817.59;5082644;28;20017;-71
2024/01/12 03:46:16;;;;;;;11.13;4.10;;;;;;;-4.74;53.08;93816.81;5082768;28;20096;-72
2024/01/12 03:48:43;;;;;;;13.85;4.95;;;;;;;-4.65;53.36;93812.88;5082980;28;20383;-73
2024/01/12 03:51:08;;;;;;;15.32;5.00;;;;;;;-4.67;52.75;93814.91;5083133;28;20095;-71
2024/01/12 03:53:34;;;;;;;11.77;4.82;;;;;;;-4.68;52.64;93805.53;5082909;28;20029;-71
2024/01/12 03:56:00;;;;;;;8.60;4.43;;;;;;;-4.67;52.53;93809.72;5082596;28;20253;-71
2024/01/12 03:58:25;;;;;;;15.00;5.22;;;;;;;-4.58;52.03;93818.03;5082592;28;20028;-71
2024/01/12 04:00:51;;;;;;;18.58;5.05;;;;;;;-4.53;52.20;93810.34;5082461;28;20028;-71
2024/01/12 04:03:16;;;;;;;10.68;4.40;;;;;;;-4.60;52.21;93812.22;5082733;28;20047;-70
2024/01/12 04:05:41;;;;;;;14.18;4.82;;;;;;;-4.65;52.06;93812.88;5082726;28;20020;-71
2024/01/12 04:08:07;;;;;;;14.30;4.72;;;;;;;-4.60;52.46;93803.63;5082508;28;20029;-71
2024/01/12 04:10:32;;;;;;;8.95;3.92;;;;;;;-4.55;52.01;93806.38;5082359;28;20029;-71
2024/01/12 04:12:58;;;;;;;7.93;3.80;;;;;;;-4.51;52.49;93803.09;5081154;28;20017;-71
2024/01/12 04:15:24;;;;;;;10.80;4.30;;;;;;;-4.47;52.18;93800.88;5082337;28;20060;-71
2024/01/12 04:17:50;;;;;;;8.40;3.72;;;;;;;-4.40;51.70;93803.38;5082554;28;20028;-71
2024/01/12 04:20:16;;;;;;;13.75;5.55;;;;;;;-4.37;52.73;93814.13;5085356;28;20115;-72
2024/01/12 04:22:41;;;;;;;11.57;5.15;;;;;;;-4.37;53.17;93810.75;5085476;28;20036;-71
2024/01/12 04:25:07;;;;;;;12.80;5.30;;;;;;;-4.32;53.51;93811.66;5086735;28;20355;-72
2024/01/12 04:27:33;;;;;;;12.70;5.78;;;;;;;-4.39;53.21;93821.38;5086340;28;20359;-72
2024/01/12 04:29:58;;;;;;;11.93;5.60;;;;;;;-4.39;52.94;93810.97;5086208;28;20021;-72
2024/01/12 04:32:24;;;;;;;12.07;5.78;;;;;;;-4.40;52.05;93814.56;5086212;28;20056;-70
2024/01/12 04:34:49;;;;;;;15.85;4.93;;;;;;;-4.31;52.66;93815.06;5086019;28;20036;-72
2024/01/12 04:37:14;;;;;;;13.82;4.88;;;;;;;-4.29;53.28;93803.41;5086161;28;20027;-72
2024/01/12 04:39:41;;;;;;;16.90;6.15;;;;;;;-4.21;53.11;93804.91;5086560;28;20028;-72
2024/01/12 04:42:09;;;;;;;15.68;6.93;;;;;;;-4.14;53.50;93804.81;5086205;28;20024;-72
2024/01/12 04:44:34;;;;;;;10.43;5.28;;;;;;;-4.14;54.22;93807.41;5085805;28;20020;-71
2024/01/12 04:47:00;;;;;;;12.60;5.53;;;;;;;-4.18;54.47;93798.44;5085936;28;20120;-71
2024/01/12 04:49:25;;;;;;;14.70;6.18;;;;;;;-4.12;55.33;93790.53;5085880;28;20345;-71
2024/01/12 04:51:50;;;;;;;14.68;6.13;;;;;;;-4.10;55.46;93798.13;5085620;28;20043;-71
2024/01/12 04:54:16;;;;;;;22.23;6.97;;;;;;;-4.13;55.61;93799.38;5083987;28;20040;-71
2024/01/12 04:56:42;;;;;;;15.63;6.75;;;;;;;-4.17;56.31;93805.22;5085622;28;20030;-71
2024/01/12 04:59:07;;;;;;;14.48;5.82;;;;;;;-4.26;56.81;93815.97;5085675;28;20032;-72
2024/01/12 05:01:33;;;;;;;13.35;6.38;;;;;;;-4.33;56.40;93820.47;5085902;28;20044;-71
2024/01/12 05:03:58;;;;;;;14.57;5.40;;;;;;;-4.40;56.24;93824.97;5085610;28;20223;-71
2024/01/12 05:06:24;;;;;;;16.42;5.20;;;;;;;-4.39;56.13;93825.78;5085354;28;20091;-71
2024/01/12 05:08:50;;;;;;;19.23;6.20;;;;;;;-4.43;56.59;93826.22;5085532;28;20054;-72
2024/01/12 05:11:15;;;;;;;15.35;7.13;;;;;;;-4.45;57.33;93837.88;5085003;28;20048;-71
2024/01/12 05:13:41;;;;;;;19.05;7.65;;;;;;;-4.54;56.97;93823.56;5085720;28;20060;-71
2024/01/12 05:16:06;;;;;;;20.08;8.15;;;;;;;-4.65;58.23;93846.69;5085318;28;20028;-71
2024/01/12 05:18:32;;;;;;;23.00;8.35;;;;;;;-4.69;58.95;93848.16;5085264;28;20024;-70
2024/01/12 05:20:57;;;;;;;25.67;8.13;;;;;;;-4.77;59.33;93845.06;5085299;28;20024;-71
2024/01/12 05:23:23;;;;;;;20.13;7.70;;;;;;;-4.80;59.16;93846.28;5085296;28;20249;-71
2024/01/12 05:25:48;;;;;;;26.88;8.27;;;;;;;-4.82;59.66;93853.53;5085367;28;20048;-71
2024/01/12 05:28:14;;;;;;;17.73;6.80;;;;;;;-4.88;59.16;93857.00;5085259;28;20029;-71
2024/01/12 05:30:39;;;;;;;29.83;9.27;;;;;;;-4.94;59.85;93861.25;5084107;28;20021;-71
2024/01/12 05:33:04;;;;;;;24.30;8.32;;;;;;;-5.03;60.42;93857.34;5084872;28;20020;-71
2024/01/12 05:35:30;;;;;;;21.95;8.95;;;;;;;-5.13;61.09;93862.25;5085095;28;20054;-71
2024/01/12 05:37:55;;;;;;;26.85;10.70;;;;;;;-5.24;61.41;93855.97;5085142;28;20016;-71
2024/01/12 05:40:21;;;;;;;24.10;7.93;;;;;;;-5.28;61.55;93860.00;5085119;28;20035;-71
2024/01/12 05:42:46;;;;;;;27.55;8.95;;;;;;;-5.22;61.45;93864.34;5084926;28;20024;-71
2024/01/12 05:45:12;;;;;;;24.20;8.68;;;;;;;-5.22;61.71;93872.13;5085169;28;20038;-72
2024/01/12 05:47:37;;;;;;;24.45;7.90;;;;;;;-5.27;62.24;93869.38;5084836;28;20222;-71
2024/01/12 05:50:03;;;;;;;30.27;9.45;;;;;;;-5.37;62.68;93869.06;5084785;28;20024;-71
2024/01/12 05:52:30;;;;;;;24.13;9.63;;;;;;;-5.44;63.14;93854.34;5084847;28;20020;-71
2024/01/12 05:54:55;;;;;;;23.75;9.52;;;;;;;-5.54;63.83;93855.84;5084211;28;20044;-71
2024/01/12 05:57:21;;;;;;;22.55;10.20;;;;;;;-5.58;63.73;93868.44;5084514;28;20029;-71
2024/01/12 05:59:46;;;;;;;25.48;10.77;;;;;;;-5.63;63.88;93862.31;5084319;28;20035;-71
2024/01/12 06:02:14;;;;;;;28.20;10.15;;;;;;;-5.76;64.29;93868.41;5084423;28;20024;-71
2024/01/12 06:04:40;;;;;;;22.50;10.27;;;;;;;-5.75;64.56;93859.63;5084394;28;20050;-71
2024/01/12 06:07:06;;;;;;;28.15;10.70;;;;;;;-5.81;64.32;93853.47;5084051;28;20311;-70
2024/01/12 06:09:31;;;;;;;29.23;10.02;;;;;;;-5.75;63.89;93859.63;5084170;28;20231;-76
2024/01/12 06:11:56;;;;;;;35.35;13.13;;;;;;;-5.69;63.93;93863.97;5083984;28;20115;-75
2024/01/12 06:14:22;;;;;;;23.17;9.40;;;;;;;-5.76;64.12;93873.59;5084183;28;20032;-75
2024/01/12 06:16:48;;;;;;;30.02;10.15;;;;;;;-5.68;61.99;93870.72;5084008;28;20033;-76
2024/01/12 06:19:13;;;;;;;27.20;9.85;;;;;;;-5.62;60.46;93858.69;5084057;28;20036;-76
2024/01/12 06:21:40;;;;;;;16.85;7.60;;;;;;;-5.48;56.60;93866.16;5083897;28;20028;-75
2024/01/12 06:24:05;;;;;;;12.02;4.15;;;;;;;-5.27;52.44;93871.97;5083810;28;20054;-75
2024/01/12 06:26:31;;;;;;;15.52;5.05;;;;;;;-5.16;52.85;93866.06;5083806;28;20024;-75
2024/01/12 06:28:58;;;;;;;12.98;5.00;;;;;;;-5.01;52.64;93877.91;5083702;28;20087;-75
2024/01/12 06:31:23;;;;;;;26.80;6.53;;;;;;;-4.90;52.28;93893.59;5083768;28;20066;-75
2024/01/12 06:33:48;;;;;;;11.48;3.00;;;;;;;-5.00;52.13;93897.72;5083541;28;20315;-75
2024/01/12 06:36:14;;;;;;;17.30;5.20;;;;;;;-4.97;53.15;93881.69;5083582;28;20319;-75
2024/01/12 06:38:39;;;;;;;19.88;6.13;;;;;;;-4.97;53.29;93879.88;5083835;28;20024;-75
2024/01/12 06:41:05;;;;;;;18.00;7.18;;;;;;;-4.95;53.96;93877.84;5083363;28;20035;-75
2024/01/12 06:43:30;;;;;;;20.08;6.85;;;;;;;-4.98;54.62;93885.31;5082976;28;20051;-75
2024/01/12 06:45:56;;;;;;;21.02;6.07;;;;;;;-4.94;54.16;93892.44;5082895;28;20086;-75
2024/01/12 06:48:21;;;;;;;14.48;7.20;;;;;;;-5.01;54.61;93890.91;5081350;28;20033;-75
2024/01/12 06:50:46;;;;;;;15.15;6.97;;;;;;;-4.98;55.30;93890.50;5083034;28;20016;-75
2024/01/12 06:53:14;;;;;;;13.52;6.20;;;;;;;-4.94;54.79;93913.25;5083421;28;20021;-75
2024/01/12 06:55:39;;;;;;;21.70;7.13;;;;;;;-4.89;54.23;93905.56;5083129;28;20032;-75
2024/01/12 06:58:05;;;;;;;19.80;6.80;;;;;;;-4.84;53.25;93900.53;5082541;28;20024;-75
2024/01/12 07:00:31;;;;;;;18.67;6.85;;;;;;;-4.79;53.17;93912.88;5081568;28;20314;-76
2024/01/12 07:02:57;;;;;;;21.50;8.27;;;;;;;-4.73;53.10;93906.03;5082555;28;20036;-75
2024/01/12 07:05:23;;;;;;;40.67;10.30;;;;;;;-4.70;54.10;93901.19;5082538;28;20204;-76
2024/01/12 07:07:48;;;;;;;12.90;5.63;;;;;;;-4.87;53.61;93895.75;5082418;28;20096;-75
2024/01/12 07:10:14;;;;;;;13.68;5.55;;;;;;;-4.79;53.94;93888.69;5082736;28;20066;-75
2024/01/12 07:12:39;;;;;;;15.20;5.70;;;;;;;-4.75;54.16;93900.25;5081338;28;20377;-75
2024/01/12 07:15:06;;;;;;;15.23;7.35;;;;;;;-4.76;54.06;93898.63;5082794;28;20025;-75
2024/01/12 07:17:31;;;;;;;18.38;6.38;;;;;;;-4.78;55.41;93904.09;5082931;28;20050;-75
2024/01/12 07:19:56;;;;;;;11.27;5.18;;;;;;;-4.84;54.75;93928.34;5082792;28;20039;-76
2024/01/12 07:22:22;;;;;;;14.88;6.78;;;;;;;-4.81;54.33;93912.31;5082762;28;20375;-78
2024/01/12 07:24:48;;;;;;;18.25;6.07;;;;;;;-4.73;54.79;93914.63;5082629;28;20314;-76
2024/01/12 07:27:14;;;;;;;15.18;5.80;;;;;;;-4.65;53.48;93919.53;5082707;28;20020;-76
2024/01/12 07:29:40;;;;;;;19.75;8.98;;;;;;;-4.69;53.74;93920.97;5083034;28;20019;-76
2024/01/12 07:32:05;;;;;;;15.50;6.20;;;;;;;-4.77;54.02;93931.66;5082693;28;20370;-76
2024/01/12 07:34:31;;;;;;;13.95;6.72;;;;;;;-4.86;54.69;93951.16;5082544;28;20024;-75
2024/01/12 07:36:57;;;;;;;19.02;7.30;;;;;;;-4.80;55.25;93944.28;5081506;28;20237;-76
2024/01/12 07:39:23;;;;;;;20.15;7.22;;;;;;;-4.71;55.10;93949.00;5082637;28;20073;-75
2024/01/12 07:41:48;;;;;;;20.38;6.13;;;;;;;-4.64;55.26;93944.53;5082638;28;20024;-75
2024/01/12 07:44:15;;;;;;;17.33;7.03;;;;;;;-4.69;55.71;93946.97;5082749;28;20020;-75
2024/01/12 07:46:40;;;;;;;13.75;6.70;;;;;;;-4.66;55.93;93946.56;5082751;28;20047;-75
2024/01/12 07:49:06;;;;;;;21.88;7.60;;;;;;;-4.72;56.61;93950.03;5081700;28;20176;-75
2024/01/12 07:51:31;;;;;;;21.52;7.75;;;;;;;-4.72;57.41;93976.03;5081501;28;20021;-80
2024/01/12 07:53:57;;;;;;;29.80;8.48;;;;;;;-4.59;60.88;93961.31;5083553;28;20062;-81
2024/01/12 07:56:22;;;;;;;22.27;7.88;;;;;;;-4.45;60.63;93970.56;5086798;28;20215;-79
2024/01/12 07:58:48;;;;;;;22.10;8.52;;;;;;;-4.38;56.97;93973.84;5087144;28;20031;-79
2024/01/12 08:01:14;;;;;;;25.02;7.00;;;;;;;-4.28;59.29;93987.16;5087110;28;20024;-79
2024/01/12 08:03:40;;;;;;;21.60;8.73;;;;;;;-4.14;59.44;93989.63;5087203;28;20067;-80
2024/01/12 08:06:06;;;;;;;22.80;8.50;;;;;;;-4.07;57.80;93988.53;5086760;28;20024;-79
2024/01/12 08:08:32;;;;;;;22.85;7.18;;;;;;;-4.20;56.30;93991.28;5086499;28;20252;-80
2024/01/12 08:10:57;;;;;;;15.75;7.28;;;;;;;-4.16;58.01;93986.44;5085447;28;20052;-80
2024/01/12 08:13:24;;;;;;;21.17;8.13;;;;;;;-4.18;58.23;93991.06;5086767;28;20043;-80
2024/01/12 08:15:50;;;;;;;18.48;7.47;;;;;;;-4.04;59.12;93985.47;5086697;28;20033;-80
2024/01/12 08:18:16;;;;;;;20.30;7.47;;;;;;;-4.16;59.48;93987.22;5086653;28;20281;-81
2024/01/12 08:20:41;;;;;;;19.55;9.00;;;;;;;-4.20;59.39;94021.72;5086750;28;20036;-80
2024/01/12 08:23:07;;;;;;;23.17;8.50;;;;;;;-4.37;60.46;94000.69;5086523;28;20032;-80
2024/01/12 08:25:32;;;;;;;26.27;10.10;;;;;;;-4.41;60.20;93995.13;5086227;28;20025;-80
2024/01/12 08:27:57;;;;;;;28.40;10.00;;;;;;;-4.20;60.69;93995.69;5086539;28;20310;-79
2024/01/12 08:30:23;;;;;;;23.33;9.80;;;;;;;-4.19;60.88;93986.84;5086264;28;20027;-80
2024/01/12 08:32:48;;;;;;;28.70;10.98;;;;;;;-4.25;61.53;93984.13;5085315;28;20028;-79
2024/01/12 08:35:14;;;;;;;23.70;8.80;;;;;;;-4.27;61.71;94001.00;5084933;28;20033;-72
2024/01/12 08:37:39;;;;;;;36.72;11.70;;;;;;;-4.43;62.55;94000.53;5085698;28;20376;-72
2024/01/12 08:40:05;;;;;;;18.95;9.05;;;;;;;-4.58;63.43;94004.50;5085510;28;20016;-72
2024/01/12 08:42:32;;;;;;;21.65;9.82;;;;;;;-4.71;63.47;94011.41;5085682;28;20028;-72
2024/01/12 08:44:57;;;;;;;39.25;12.10;;;;;;;-4.87;65.58;94027.56;5085645;28;20091;-72
2024/01/12 08:47:23;;;;;;;33.22;12.80;;;;;;;-4.92;65.78;94028.22;5085411;28;20023;-72
2024/01/12 08:49:48;;;;;;;31.73;11.88;;;;;;;-4.97;65.91;94035.84;5085352;28;20023;-73
2024/01/12 08:52:13;;;;;;;28.70;11.15;;;;;;;-5.09;66.76;94025.34;5085277;28;20319;-73
2024/01/12 08:54:39;;;;;;;32.67;11.38;;;;;;;-5.11;67.11;94034.34;5085419;28;20028;-70
2024/01/12 08:57:04;;;;;;;44.92;14.20;;;;;;;-5.20;68.22;94033.03;5085131;28;20025;-70
2024/01/12 08:59:30;;;;;;;24.95;11.30;;;;;;;-5.31;68.91;94034.50;5085254;28;20127;-69
2024/01/12 09:01:57;;;;;;;34.97;13.88;;;;;;;-5.24;69.89;94032.66;5084259;28;20086;-70
2024/01/12 09:04:23;;;;;;;32.55;11.38;;;;;;;-5.18;68.97;94042.22;5084181;28;20012;-69
2024/01/12 09:06:48;;;;;;;30.50;12.48;;;;;;;-5.15;69.12;94047.00;5084714;28;20092;-69
2024/01/12 09:09:14;;;;;;;21.80;9.90;;;;;;;-5.11;69.16;94039.56;5085260;28;20031;-69
2024/01/12 09:11:39;;;;;;;40.40;14.23;;;;;;;-5.11;69.78;94042.97;5085105;28;20037;-70
2024/01/12 09:14:05;;;;;;;41.85;13.20;;;;;;;-5.07;69.70;94048.53;5084878;28;20318;-69
2024/01/12 09:16:31;;;;;;;34.55;11.80;;;;;;;-5.00;70.02;94064.09;5085072;28;20056;-70
2024/01/12 09:18:56;;;;;;;33.53;14.35;;;;;;;-5.02;69.81;94060.91;5084872;28;20341;-70
2024/01/12 09:21:23;;;;;;;29.63;12.80;;;;;;;-5.03;70.07;94065.28;5084812;28;20314;-69
2024/01/12 09:23:49;;;;;;;35.67;14.60;;;;;;;-5.13;70.75;94054.56;5084698;28;20043;-70
2024/01/12 09:26:14;;;;;;;45.13;16.05;;;;;;;-5.17;70.82;94054.22;5085019;28;20040;-70
2024/01/12 09:28:40;;;;;;;41.72;13.98;;;;;;;-5.18;70.69;94047.41;5084923;28;20043;-70
2024/01/12 09:31:06;;;;;;;46.70;14.07;;;;;;;-5.24;70.87;94038.66;5084698;28;20032;-69
2024/01/12 09:33:32;;;;;;;43.00;14.23;;;;;;;-5.18;71.20;94047.41;5084671;28;20230;-69
2024/01/12 09:35:57;;;;;;;35.20;13.10;;;;;;;-5.14;71.72;94035.56;5084590;28;20258;-69
2024/01/12 09:38:23;;;;;;;37.90;16.20;;;;;;;-5.28;72.15;94044.47;5084575;28;20069;-69
2024/01/12 09:40:48;;;;;;;29.08;11.52;;;;;;;-5.16;72.22;94035.00;5084411;28;20020;-69
2024/01/12 09:43:14;;;;;;;37.22;14.23;;;;;;;-5.11;72.38;94040.38;5084439;28;20047;-69
2024/01/12 09:45:44;;;;;;;43.95;13.32;;;;;;;-5.02;72.62;94035.69;5084527;28;20319;-69
2024/01/12 09:48:10;;;;;;;47.15;15.02;;;;;;;-4.91;72.40;94031.59;5084581;28;20031;-69
2024/01/12 09:50:35;;;;;;;44.55;14.88;;;;;;;-4.88;72.13;94031.19;5084348;28;20028;-69
2024/01/12 09:53:01;;;;;;;47.38;17.02;;;;;;;-4.85;71.62;94033.34;5084353;28;20058;-69
2024/01/12 09:55:26;;;;;;;32.50;12.23;;;;;;;-4.83;71.65;94039.13;5083982;28;20087;-69
2024/01/12 09:57:52;;;;;;;39.47;13.50;;;;;;;-4.93;72.26;94038.81;5084245;28;20311;-69
2024/01/12 10:00:20;;;;;;;39.63;13.93;;;;;;;-4.82;72.22;94027.75;5084239;28;20039;-69
2024/01/12 10:02:47;;;;;;;26.48;8.00;;;;;;;-4.71;71.50;94029.63;5083937;28;20051;-69
2024/01/12 10:05:12;;;;;;;37.17;14.27;;;;;;;-4.75;71.70;94043.28;5084023;28;20020;-69
2024/01/12 10:07:38;;;;;;;39.63;13.70;;;;;;;-4.68;72.21;94036.19;5083934;28;20039;-69
2024/01/12 10:10:05;;;;;;;32.08;11.70;;;;;;;-4.66;71.56;94036.78;5083895;28;20068;-69
2024/01/12 10:12:31;;;;;;;26.85;9.95;;;;;;;-4.63;71.84;94029.34;5083752;28;20045;-69
2024/01/12 10:15:14;;;;;;;27.17;10.70;;;;;;;-4.65;71.48;94030.56;5083752;28;20031;-69
2024/01/12 10:17:39;;;;;;;44.70;14.57;;;;;;;-4.63;71.31;94018.16;5083147;28;20024;-68
2024/01/12 10:20:06;;;;;;;38.78;14.15;;;;;;;-4.63;70.79;94021.53;5083808;28;20361;-69
2024/01/12 10:22:31;;;;;;;42.70;15.18;;;;;;;-4.59;71.24;94021.13;5083555;28;20021;-68
2024/01/12 10:25:01;;;;;;;32.10;12.77;;;;;;;-4.44;71.21;94037.16;5083442;28;20250;-69
2024/01/12 10:27:27;;;;;;;41.92;16.10;;;;;;;-4.43;70.86;94054.38;5083484;28;20031;-69
2024/01/12 10:29:54;;;;;;;30.65;13.82;;;;;;;-4.50;70.83;94038.84;5083380;28;20021;-68
2024/01/12 10:32:20;;;;;;;30.38;13.15;;;;;;;-4.46;71.47;94037.41;5083402;28;20103;-68
2024/01/12 10:34:49;;;;;;;31.70;12.45;;;;;;;-4.38;71.54;94043.31;5083127;28;20051;-68
2024/01/12 10:37:16;;;;;;;36.78;12.38;;;;;;;-4.31;70.61;94042.25;5083411;28;20017;-68
2024/01/12 10:39:44;;;;;;;39.47;15.43;;;;;;;-4.34;70.83;94034.06;5083270;28;20020;-68
2024/01/12 10:42:11;;;;;;;36.05;13.02;;;;;;;-4.34;70.93;94034.06;5083175;28;20020;-68
2024/01/12 10:44:40;;;;;;;33.63;13.73;;;;;;;-4.21;71.51;94033.13;5081783;28;20105;-69
2024/01/12 10:47:10;;;;;;;32.58;13.13;;;;;;;-4.16;70.99;94041.09;5083171;28;20020;-68
2024/01/12 10:49:59;;;;;;;41.55;15.70;;;;;;;-4.20;70.99;94039.94;5083188;28;20024;-68
2024/01/12 10:52:49;;;;;;;42.15;14.55;;;;;;;-4.31;71.33;94031.06;5083086;28;20055;-68
2024/01/12 10:55:16;;;;;;;33.63;13.05;;;;;;;-4.21;72.04;94025.31;5082888;28;20032;-69
2024/01/12 10:57:43;;;;;;;35.63;13.63;;;;;;;-4.15;71.65;94037.47;5083006;28;20024;-68
2024/01/12 11:00:10;;;;;;;36.85;13.60;;;;;;;-4.09;70.95;94034.00;5083300;28;20095;-69
2024/01/12 11:02:49;;;;;;;39.22;15.93;;;;;;;-4.16;71.17;94028.09;5083015;28;20034;-69
2024/01/12 11:05:15;;;;;;;34.28;13.32;;;;;;;-4.15;71.19;94024.47;5083069;28;20016;-69
2024/01/12 11:07:42;;;;;;;25.90;11.52;;;;;;;-3.96;72.13;94044.28;5083020;28;20223;-69
2024/01/12 11:10:08;;;;;;;44.28;16.42;;;;;;;-3.95;71.85;94035.44;5083020;28;20028;-69
2024/01/12 11:12:36;;;;;;;43.70;14.48;;;;;;;-3.89;71.70;94033.78;5082768;28;20048;-69
2024/01/12 11:15:04;;;;;;;44.33;15.02;;;;;;;-3.91;71.24;94051.41;5082622;28;20103;-69
2024/01/12 11:17:30;;;;;;;38.42;13.43;;;;;;;-3.96;70.87;94036.47;5082559;28;20299;-69